createdAt,value
2023-02-03T00:01:48.743Z,7.10
2023-02-03T00:04:16.116Z,6.90
2023-02-03T00:06:43.005Z,7.43
2023-02-03T00:09:12.060Z,7.63
2023-02-03T00:11:38.524Z,6.40
2023-02-03T00:14:05.424Z,6.97
2023-02-03T00:16:32.241Z,7.30
2023-02-03T00:18:58.878Z,7.37
2023-02-03T00:21:25.315Z,7.20
2023-02-03T00:23:52.030Z,7.07
2023-02-03T00:26:18.832Z,6.80
2023-02-03T00:28:45.849Z,6.00
2023-02-03T00:31:16.776Z,7.20
2023-02-03T00:33:43.327Z,7.00
2023-02-03T00:36:10.300Z,6.73
2023-02-03T00:38:36.763Z,7.37
2023-02-03T00:41:03.399Z,6.10
2023-02-03T00:43:30.046Z,6.27
2023-02-03T00:45:57.165Z,7.07
2023-02-03T00:48:23.618Z,6.50
2023-02-03T00:50:50.124Z,7.30
2023-02-03T00:53:16.577Z,7.27
2023-02-03T00:55:43.844Z,5.57
2023-02-03T00:58:10.523Z,5.43
2023-02-03T01:00:37.153Z,5.27
2023-02-03T01:03:03.802Z,6.60
2023-02-03T01:05:30.385Z,5.30
2023-02-03T01:07:56.843Z,5.43
2023-02-03T01:10:23.371Z,5.33
2023-02-03T01:12:49.799Z,5.23
2023-02-03T01:15:16.278Z,5.30
2023-02-03T01:17:42.812Z,5.30
2023-02-03T01:20:12.235Z,6.00
2023-02-03T01:22:38.721Z,5.53
2023-02-03T01:25:05.628Z,5.47
2023-02-03T01:27:33.286Z,5.33
2023-02-03T01:29:59.954Z,5.27
2023-02-03T01:32:27.060Z,5.50
2023-02-03T01:34:53.476Z,5.27
2023-02-03T01:37:19.942Z,5.47
2023-02-03T01:40:03.009Z,5.00
2023-02-03T01:42:33.745Z,5.00
2023-02-03T01:45:00.168Z,5.20
2023-02-03T01:47:41.741Z,4.83
2023-02-03T01:50:34.640Z,4.50
2023-02-03T01:53:08.446Z,4.43
2023-02-03T01:55:38.434Z,5.20
2023-02-03T01:58:25.863Z,4.67
2023-02-03T02:00:54.163Z,5.47
2023-02-03T02:03:26.724Z,4.50
2023-02-03T02:06:08.188Z,5.13
2023-02-03T02:08:36.226Z,5.80
2023-02-03T02:11:03.507Z,4.30
2023-02-03T02:13:34.939Z,5.60
2023-02-03T02:16:07.636Z,4.70
2023-02-03T02:18:49.476Z,4.90
2023-02-03T02:21:28.119Z,5.17
2023-02-03T02:23:57.563Z,4.47
2023-02-03T02:26:42.205Z,4.53
2023-02-03T02:29:35.364Z,4.33
2023-02-03T02:32:24.752Z,4.80
2023-02-03T02:35:01.917Z,4.73
2023-02-03T02:37:34.394Z,5.20
2023-02-03T02:40:16.524Z,5.00
2023-02-03T02:43:00.259Z,4.80
2023-02-03T02:45:34.668Z,4.33
2023-02-03T02:48:17.024Z,4.37
2023-02-03T02:50:48.404Z,3.87
2023-02-03T02:53:15.531Z,4.47
2023-02-03T02:55:44.807Z,4.10
2023-02-03T02:58:16.516Z,3.50
2023-02-03T03:00:44.244Z,4.50
2023-02-03T03:03:16.739Z,4.60
2023-02-03T03:05:48.188Z,3.10
2023-02-03T03:08:16.906Z,4.90
2023-02-03T03:10:45.433Z,4.00
2023-02-03T03:13:18.842Z,3.60
2023-02-03T03:15:45.923Z,4.60
2023-02-03T03:18:28.619Z,3.87
2023-02-03T03:21:05.814Z,4.10
2023-02-03T03:23:39.356Z,3.97
2023-02-03T03:26:14.678Z,4.00
2023-02-03T03:28:50.063Z,4.00
2023-02-03T03:31:19.042Z,4.27
2023-02-03T03:33:47.520Z,4.67
2023-02-03T03:36:30.503Z,4.50
2023-02-03T03:39:08.847Z,4.10
2023-02-03T03:41:47.363Z,4.47
2023-02-03T03:44:16.809Z,4.10
2023-02-03T03:46:51.313Z,4.63
2023-02-03T03:49:21.051Z,4.23
2023-02-03T03:51:51.888Z,5.63
2023-02-03T03:54:23.095Z,4.93
2023-02-03T03:57:15.285Z,5.10
2023-02-03T03:59:46.226Z,5.10
2023-02-03T04:02:13.927Z,4.90
2023-02-03T04:04:41.771Z,5.10
2023-02-03T04:07:08.354Z,4.73
2023-02-03T04:09:36.933Z,5.33
2023-02-03T04:12:06.026Z,5.50
2023-02-03T04:14:35.463Z,5.17
2023-02-03T04:17:01.980Z,4.43
2023-02-03T04:19:28.428Z,4.90
2023-02-03T04:21:55.080Z,5.10
2023-02-03T04:24:21.469Z,5.77
2023-02-03T04:26:48.004Z,4.73
2023-02-03T04:29:14.491Z,4.90
2023-02-03T04:31:41.073Z,4.63
2023-02-03T04:34:07.667Z,5.10
2023-02-03T04:36:34.196Z,4.90
2023-02-03T04:39:00.666Z,4.20
2023-02-03T04:41:27.145Z,4.03
2023-02-03T04:43:53.556Z,4.53
2023-02-03T04:46:20.047Z,4.30
2023-02-03T04:48:46.455Z,4.10
2023-02-03T04:51:12.871Z,4.90
2023-02-03T04:53:39.397Z,4.00
2023-02-03T04:56:06.023Z,3.90
2023-02-03T04:58:32.427Z,4.20
2023-02-03T05:00:58.971Z,3.87
2023-02-03T05:03:26.461Z,4.50
2023-02-03T05:05:52.950Z,4.30
2023-02-03T05:08:19.539Z,4.00
2023-02-03T05:10:46.358Z,5.03
2023-02-03T05:13:12.825Z,3.57
2023-02-03T05:15:39.236Z,4.30
2023-02-03T05:18:05.928Z,3.13
2023-02-03T05:20:32.369Z,4.00
2023-02-03T05:22:58.876Z,4.67
2023-02-03T05:25:25.432Z,3.37
2023-02-03T05:27:51.864Z,4.40
2023-02-03T05:30:18.660Z,4.13
2023-02-03T05:32:45.634Z,3.57
2023-02-03T05:35:12.038Z,3.10
2023-02-03T05:37:38.465Z,4.23
2023-02-03T05:40:23.960Z,3.70
2023-02-03T05:42:50.690Z,3.37
2023-02-03T05:45:17.342Z,3.30
2023-02-03T05:47:43.885Z,4.40
2023-02-03T05:50:10.719Z,3.80
2023-02-03T05:52:37.152Z,3.70
2023-02-03T05:55:04.534Z,3.30
2023-02-03T05:57:32.361Z,4.40
2023-02-03T05:59:59.110Z,3.50
2023-02-03T06:02:25.565Z,3.00
2023-02-03T06:04:52.105Z,2.87
2023-02-03T06:07:18.581Z,2.87
2023-02-03T06:09:45.208Z,2.90
2023-02-03T06:12:11.652Z,2.70
2023-02-03T06:14:38.197Z,3.10
2023-02-03T06:17:04.751Z,3.43
2023-02-03T06:19:31.182Z,3.63
2023-02-03T06:21:57.631Z,2.97
2023-02-03T06:24:24.071Z,2.80
2023-02-03T06:26:50.513Z,2.70
2023-02-03T06:29:16.964Z,3.47
2023-02-03T06:31:43.452Z,2.67
2023-02-03T06:34:10.071Z,3.40
2023-02-03T06:36:36.494Z,2.90
2023-02-03T06:39:03.018Z,3.00
2023-02-03T06:41:30.540Z,2.50
2023-02-03T06:43:57.158Z,2.80
2023-02-03T06:46:28.126Z,3.03
2023-02-03T06:48:54.625Z,2.53
2023-02-03T06:51:21.132Z,3.30
2023-02-03T06:53:47.599Z,2.43
2023-02-03T06:56:13.999Z,2.83
2023-02-03T06:58:40.447Z,2.77
2023-02-03T07:01:06.950Z,2.43
2023-02-03T07:03:33.436Z,2.20
2023-02-03T07:05:59.849Z,2.77
2023-02-03T07:08:26.299Z,2.40
2023-02-03T07:10:55.845Z,2.20
2023-02-03T07:13:22.331Z,2.63
2023-02-03T07:15:48.799Z,2.90
2023-02-03T07:18:25.690Z,4.33
2023-02-03T07:21:05.158Z,2.50
2023-02-03T07:23:31.802Z,2.83
2023-02-03T07:26:05.766Z,3.03
2023-02-03T07:28:33.854Z,3.30
2023-02-03T07:31:01.155Z,3.20
2023-02-03T07:33:28.687Z,3.47
2023-02-03T07:35:57.064Z,2.80
2023-02-03T07:38:24.840Z,2.67
2023-02-03T07:40:51.317Z,3.00
2023-02-03T07:43:18.535Z,3.73
2023-02-03T07:45:45.088Z,3.40
2023-02-03T07:48:12.416Z,3.50
2023-02-03T07:50:39.056Z,3.60
2023-02-03T07:53:06.421Z,3.37
2023-02-03T07:55:32.880Z,3.77
2023-02-03T07:58:01.578Z,2.90
2023-02-03T08:00:29.709Z,4.53
2023-02-03T08:02:56.439Z,3.60
2023-02-03T08:05:22.921Z,3.43
2023-02-03T08:07:49.333Z,3.30
2023-02-03T08:10:16.792Z,3.33
2023-02-03T08:12:45.394Z,3.30
2023-02-03T08:15:12.836Z,3.40
2023-02-03T08:17:42.241Z,3.70
2023-02-03T08:20:10.041Z,3.27
2023-02-03T08:22:36.610Z,3.30
2023-02-03T08:25:03.932Z,2.80
2023-02-03T08:27:31.922Z,3.13
2023-02-03T08:29:58.677Z,3.50
2023-02-03T08:32:25.230Z,3.50
2023-02-03T08:34:52.449Z,3.13
2023-02-03T08:37:24.348Z,3.67
2023-02-03T08:39:51.990Z,3.60
2023-02-03T08:42:19.010Z,3.40
2023-02-03T08:44:45.848Z,4.30
2023-02-03T08:47:12.753Z,3.77
2023-02-03T08:49:42.170Z,4.07
2023-02-03T08:52:12.170Z,4.20
2023-02-03T08:54:38.935Z,4.97
2023-02-03T08:57:05.855Z,4.30
2023-02-03T08:59:35.982Z,4.87
2023-02-03T09:02:04.668Z,3.90
2023-02-03T09:04:33.414Z,5.13
2023-02-03T09:07:00.657Z,3.87
2023-02-03T09:09:28.846Z,4.33
2023-02-03T09:12:00.661Z,4.43
2023-02-03T09:14:27.272Z,5.00
2023-02-03T09:16:53.792Z,5.30
2023-02-03T09:19:20.378Z,4.63
2023-02-03T09:21:49.065Z,5.07
2023-02-03T09:24:16.715Z,5.07
2023-02-03T09:26:43.374Z,6.10
2023-02-03T09:29:10.160Z,5.40
2023-02-03T09:31:36.947Z,6.60
2023-02-03T09:34:03.390Z,5.53
2023-02-03T09:36:29.886Z,5.60
2023-02-03T09:38:57.862Z,6.80
2023-02-03T09:41:46.074Z,6.17
2023-02-03T09:44:24.475Z,5.80
2023-02-03T09:47:03.628Z,6.90
2023-02-03T09:49:50.683Z,6.50
2023-02-03T09:52:33.837Z,6.20
2023-02-03T09:55:28.743Z,6.40
2023-02-03T09:58:04.647Z,6.90
2023-02-03T10:00:42.110Z,6.73
2023-02-03T10:03:31.835Z,7.10
2023-02-03T10:06:10.435Z,7.90
2023-02-03T10:08:39.845Z,6.93
2023-02-03T10:11:22.730Z,8.27
2023-02-03T10:14:15.488Z,7.07
2023-02-03T10:17:01.169Z,7.97
2023-02-03T10:19:41.995Z,7.30
2023-02-03T10:22:15.159Z,7.93
2023-02-03T10:24:49.937Z,6.27
2023-02-03T10:27:23.185Z,8.43
2023-02-03T10:30:08.218Z,7.33
2023-02-03T10:32:36.008Z,8.10
2023-02-03T10:35:02.646Z,8.20
2023-02-03T10:37:44.879Z,8.57
2023-02-03T10:40:16.164Z,8.00
2023-02-03T10:43:05.568Z,8.50
2023-02-03T10:45:36.993Z,8.73
2023-02-03T10:48:04.912Z,9.30
2023-02-03T10:50:31.992Z,8.97
2023-02-03T10:53:18.481Z,8.50
2023-02-03T10:55:48.611Z,8.03
2023-02-03T10:58:22.100Z,8.80
2023-02-03T11:00:56.777Z,9.60
2023-02-03T11:03:26.642Z,8.80
2023-02-03T11:06:08.938Z,8.20
2023-02-03T11:08:38.110Z,9.77
2023-02-03T11:11:13.772Z,9.00
2023-02-03T11:13:40.251Z,9.27
2023-02-03T11:16:18.466Z,9.87
2023-02-03T11:19:05.736Z,8.47
2023-02-03T11:21:38.440Z,8.80
2023-02-03T11:24:09.860Z,9.20
2023-02-03T11:26:42.848Z,7.93
2023-02-03T11:29:19.177Z,9.43
2023-02-03T11:31:49.846Z,9.40
2023-02-03T11:34:19.927Z,9.60
2023-02-03T11:36:46.432Z,8.70
2023-02-03T11:39:30.278Z,9.90
2023-02-03T11:41:56.808Z,8.77
2023-02-03T11:44:25.944Z,8.80
2023-02-03T11:46:57.346Z,8.93
2023-02-03T11:49:46.808Z,10.10
2023-02-03T11:52:38.084Z,9.80
2023-02-03T11:55:16.145Z,8.67
2023-02-03T11:58:08.415Z,9.50
2023-02-03T12:00:53.548Z,8.80
2023-02-03T12:03:29.151Z,9.50
2023-02-03T12:06:10.849Z,8.13
2023-02-03T12:08:40.338Z,8.67
2023-02-03T12:11:31.168Z,8.10
2023-02-03T12:14:24.866Z,7.53
2023-02-03T12:17:24.564Z,8.03
2023-02-03T12:20:07.030Z,7.30
2023-02-03T12:22:45.805Z,6.53
2023-02-03T12:26:02.935Z,6.73
2023-02-03T12:28:50.408Z,7.20
2023-02-03T12:31:42.929Z,5.80
2023-02-03T12:34:16.683Z,5.63
2023-02-03T12:36:53.580Z,5.87
2023-02-03T12:39:29.031Z,6.07
2023-02-03T12:42:01.800Z,5.60
2023-02-03T12:45:00.115Z,5.00
2023-02-03T12:47:34.848Z,4.93
2023-02-03T12:50:09.699Z,5.47
2023-02-03T12:52:51.680Z,5.17
2023-02-03T12:55:34.752Z,4.90
2023-02-03T12:58:06.423Z,5.10
2023-02-03T13:00:51.264Z,5.13
2023-02-03T13:03:32.036Z,4.60
2023-02-03T13:06:17.435Z,3.90
2023-02-03T13:09:08.139Z,4.03
2023-02-03T13:11:51.550Z,3.80
2023-02-03T13:14:23.805Z,4.07
2023-02-03T13:16:55.523Z,4.47
2023-02-03T13:19:29.091Z,4.40
2023-02-03T13:21:55.501Z,3.70
2023-02-03T13:24:25.801Z,3.50
2023-02-03T13:27:00.777Z,4.40
2023-02-03T13:29:49.480Z,4.07
2023-02-03T13:32:23.968Z,3.73
2023-02-03T13:35:37.933Z,3.70
2023-02-03T13:38:10.309Z,3.27
2023-02-03T13:41:00.391Z,3.47
2023-02-03T13:43:39.167Z,3.30
2023-02-03T13:46:18.622Z,3.90
2023-02-03T13:48:47.046Z,4.30
2023-02-03T13:51:18.318Z,4.00
2023-02-03T13:53:47.345Z,3.90
2023-02-03T13:56:23.074Z,4.43
2023-02-03T13:59:26.300Z,3.93
2023-02-03T14:02:21.556Z,4.03
2023-02-03T14:04:48.052Z,4.80
2023-02-03T14:07:39.640Z,3.97
2023-02-03T14:10:16.643Z,3.70
2023-02-03T14:12:52.206Z,3.60
2023-02-03T14:15:32.372Z,4.50
2023-02-03T14:18:22.120Z,4.17
2023-02-03T14:20:51.828Z,3.93
2023-02-03T14:23:23.552Z,3.93
2023-02-03T14:25:55.233Z,4.27
2023-02-03T14:28:28.054Z,4.20
2023-02-03T14:31:23.281Z,4.63
2023-02-03T14:34:12.880Z,4.10
2023-02-03T14:36:39.341Z,4.40
2023-02-03T14:39:18.084Z,4.67
2023-02-03T14:41:55.619Z,4.87
2023-02-03T14:44:43.793Z,4.90
2023-02-03T14:47:23.299Z,5.53
2023-02-03T14:49:55.967Z,4.20
2023-02-03T14:52:35.645Z,4.03
2023-02-03T14:55:14.247Z,3.60
2023-02-03T14:57:49.116Z,3.57
2023-02-03T15:00:22.938Z,4.03
2023-02-03T15:03:09.279Z,3.57
2023-02-03T15:05:43.352Z,3.60
2023-02-03T15:08:32.008Z,3.37
2023-02-03T15:10:58.666Z,3.60
2023-02-03T15:13:31.051Z,2.63
2023-02-03T15:16:01.022Z,3.53
2023-02-03T15:18:33.264Z,3.63
2023-02-03T15:20:59.763Z,3.90
2023-02-03T15:23:29.755Z,3.40
2023-02-03T15:26:04.289Z,5.07
2023-02-03T15:28:30.854Z,4.23
2023-02-03T15:31:09.501Z,4.37
2023-02-03T15:33:38.530Z,3.97
2023-02-03T15:36:13.683Z,4.57
2023-02-03T15:38:46.184Z,4.43
2023-02-03T15:41:23.402Z,3.77
2023-02-03T15:43:55.232Z,3.73
2023-02-03T15:46:40.891Z,5.03
2023-02-03T15:49:30.102Z,3.60
2023-02-03T15:52:03.899Z,3.93
2023-02-03T15:54:54.741Z,4.50
2023-02-03T15:57:33.846Z,4.63
2023-02-03T16:00:27.232Z,3.77
2023-02-03T16:02:55.052Z,4.00
2023-02-03T16:05:25.709Z,4.17
2023-02-03T16:07:52.850Z,4.43
2023-02-03T16:10:30.040Z,3.80
2023-02-03T16:13:22.359Z,5.00
2023-02-03T16:16:16.086Z,5.23
2023-02-03T16:18:51.780Z,5.00
2023-02-03T16:21:35.915Z,4.70
2023-02-03T16:24:05.122Z,4.83
2023-02-03T16:26:33.580Z,4.33
2023-02-03T16:29:29.849Z,4.10
2023-02-03T16:32:15.215Z,5.00
2023-02-03T16:34:59.840Z,5.97
2023-02-03T16:37:44.762Z,4.50
2023-02-03T16:40:31.776Z,3.80
2023-02-03T16:43:17.177Z,4.67
2023-02-03T16:46:02.109Z,5.37
2023-02-03T16:48:47.211Z,4.87
2023-02-03T16:51:17.203Z,4.80
2023-02-03T16:53:45.377Z,4.43
2023-02-03T16:56:13.028Z,4.60
2023-02-03T16:58:39.856Z,5.30
2023-02-03T17:01:07.703Z,3.83
2023-02-03T17:03:36.324Z,4.90
2023-02-03T17:06:08.682Z,4.80
2023-02-03T17:08:35.737Z,5.10
2023-02-03T17:11:04.540Z,5.33
2023-02-03T17:13:31.066Z,5.97
2023-02-03T17:15:58.341Z,4.43
2023-02-03T17:18:24.916Z,5.17
2023-02-03T17:20:51.891Z,4.07
2023-02-03T17:23:18.523Z,7.67
2023-02-03T17:25:47.365Z,6.00
2023-02-03T17:28:14.911Z,4.90
2023-02-03T17:30:41.861Z,4.90
2023-02-03T17:33:12.399Z,4.10
2023-02-03T17:35:41.444Z,5.23
2023-02-03T17:38:08.661Z,4.50
2023-02-03T17:54:16.611Z,4.40
2023-02-03T17:56:47.404Z,4.87
2023-02-03T17:59:14.230Z,8.10
2023-02-03T18:01:40.775Z,5.30
2023-02-03T18:04:11.136Z,5.80
2023-02-03T18:06:37.771Z,5.30
2023-02-03T18:09:06.583Z,6.17
2023-02-03T18:11:34.987Z,11.93
2023-02-03T18:14:02.252Z,5.03
2023-02-03T18:16:34.789Z,4.40
2023-02-03T18:19:03.572Z,5.40
2023-02-03T18:21:32.307Z,6.90
2023-02-03T18:24:01.607Z,4.60
2023-02-03T18:26:36.878Z,6.50
2023-02-03T18:29:05.178Z,5.97
2023-02-03T18:31:32.472Z,7.30
2023-02-03T18:34:03.389Z,4.90
2023-02-03T18:36:29.868Z,6.60
2023-02-03T18:38:56.297Z,5.20
2023-02-03T18:41:24.977Z,5.30
2023-02-03T18:43:51.513Z,4.83
2023-02-03T18:46:20.864Z,6.20
2023-02-03T18:48:48.401Z,4.90
2023-02-03T18:51:17.436Z,4.50
2023-02-03T18:53:45.134Z,4.90
2023-02-03T18:56:16.290Z,4.53
2023-02-03T18:58:43.073Z,6.40
2023-02-03T19:01:10.762Z,4.73
2023-02-03T19:03:38.121Z,5.83
2023-02-03T19:06:09.451Z,6.30
2023-02-03T19:08:37.246Z,10.87
2023-02-03T19:11:03.854Z,6.13
2023-02-03T19:13:30.384Z,5.27
2023-02-03T19:15:56.944Z,8.27
2023-02-03T19:18:23.437Z,5.30
2023-02-03T19:20:50.032Z,7.50
2023-02-03T19:23:16.533Z,6.27
2023-02-03T19:25:42.945Z,8.20
2023-02-03T19:28:20.070Z,5.00
2023-02-03T19:30:57.371Z,6.20
2023-02-03T19:33:26.360Z,4.83
2023-02-03T19:35:52.997Z,4.77
2023-02-03T19:38:19.496Z,4.80
2023-02-03T19:40:46.560Z,11.50
2023-02-03T19:43:13.155Z,5.37
2023-02-03T19:45:39.716Z,5.10
2023-02-03T19:48:06.239Z,5.80
2023-02-03T19:50:33.018Z,5.73
2023-02-03T19:52:59.514Z,6.07
2023-02-03T19:55:32.461Z,5.33
2023-02-03T19:58:00.110Z,8.63
2023-02-03T20:00:28.033Z,6.47
2023-02-03T20:02:55.072Z,6.30
2023-02-03T20:05:22.208Z,6.60
2023-02-03T20:07:53.515Z,6.80
2023-02-03T20:10:20.398Z,6.80
2023-02-03T20:12:47.028Z,8.70
2023-02-03T20:15:13.483Z,6.37
2023-02-03T20:17:40.340Z,6.23
2023-02-03T20:20:07.046Z,6.43
2023-02-03T20:22:34.389Z,5.30
2023-02-03T20:25:00.850Z,5.80
2023-02-03T20:27:27.336Z,6.20
2023-02-03T20:29:55.133Z,7.80
2023-02-03T20:32:21.978Z,5.67
2023-02-03T20:34:48.908Z,9.30
2023-02-03T20:37:15.424Z,6.93
2023-02-03T20:39:41.934Z,6.20
2023-02-03T20:42:17.004Z,6.07
2023-02-03T20:44:44.268Z,8.30
2023-02-03T20:47:13.166Z,6.00
2023-02-03T20:49:39.719Z,5.93
2023-02-03T20:52:17.643Z,8.37
2023-02-03T20:54:44.371Z,9.40
2023-02-03T20:57:17.181Z,21.73
2023-02-03T20:59:45.025Z,10.57
2023-02-03T21:02:51.377Z,5.43
2023-02-03T21:05:27.316Z,6.73
2023-02-03T21:07:54.217Z,6.40
2023-02-03T21:10:24.852Z,6.40
2023-02-03T21:12:51.976Z,8.00
2023-02-03T21:15:29.700Z,6.10
2023-02-03T21:17:56.224Z,5.93
2023-02-03T21:20:29.302Z,5.87
2023-02-03T21:22:56.921Z,5.37
2023-02-03T21:25:28.792Z,5.97
2023-02-03T21:27:58.073Z,5.40
2023-02-03T21:30:31.223Z,5.97
2023-02-03T21:32:59.474Z,9.77
2023-02-03T21:35:34.421Z,6.40
2023-02-03T21:38:02.758Z,5.10
2023-02-03T21:40:34.309Z,6.20
2023-02-03T21:43:03.396Z,6.47
2023-02-03T21:45:37.849Z,5.97
2023-02-03T21:48:25.801Z,5.77
2023-02-03T21:50:53.982Z,5.83
2023-02-03T21:53:25.270Z,7.10
2023-02-03T21:55:51.810Z,6.23
2023-02-03T21:58:23.684Z,7.43
2023-02-03T22:00:51.996Z,6.70
2023-02-03T22:03:35.217Z,7.63
2023-02-03T22:06:17.068Z,6.57
2023-02-03T22:08:46.085Z,5.77
2023-02-03T22:11:14.162Z,6.73
2023-02-03T22:13:40.741Z,4.90
2023-02-03T22:16:07.489Z,5.40
2023-02-03T22:18:34.339Z,6.00
2023-02-03T22:21:00.986Z,4.80
2023-02-03T22:23:27.421Z,5.27
2023-02-03T22:25:53.860Z,5.63
2023-02-03T22:28:20.389Z,5.10
2023-02-03T22:30:47.892Z,5.40
2023-02-03T22:33:14.444Z,4.93
2023-02-03T22:35:40.863Z,5.17
2023-02-03T22:38:07.533Z,5.87
2023-02-03T22:40:33.986Z,5.90
2023-02-03T22:43:00.420Z,4.53
2023-02-03T22:45:27.067Z,5.80
2023-02-03T22:47:53.527Z,5.10
2023-02-03T22:50:27.405Z,4.80
2023-02-03T22:53:01.243Z,5.20
2023-02-03T22:55:27.697Z,5.00
2023-02-03T22:57:54.768Z,5.57
2023-02-03T23:00:23.568Z,5.33
2023-02-03T23:02:50.595Z,6.07
2023-02-03T23:05:18.227Z,5.70
2023-02-03T23:07:45.303Z,5.93
2023-02-03T23:10:17.343Z,5.03
2023-02-03T23:12:44.326Z,6.17
2023-02-03T23:15:11.489Z,4.93
2023-02-03T23:17:38.132Z,6.23
2023-02-03T23:20:06.219Z,5.87
2023-02-03T23:22:32.726Z,4.93
2023-02-03T23:25:00.327Z,4.83
2023-02-03T23:27:27.228Z,6.80
2023-02-03T23:29:53.786Z,5.63
2023-02-03T23:32:20.414Z,4.87
2023-02-03T23:35:05.518Z,5.00
2023-02-03T23:37:32.173Z,5.10
2023-02-03T23:39:58.645Z,5.93
2023-02-03T23:42:25.120Z,5.87
2023-02-03T23:44:51.811Z,6.30
2023-02-03T23:47:18.313Z,5.93
2023-02-03T23:49:44.866Z,5.17
2023-02-03T23:52:11.332Z,7.17
2023-02-03T23:54:37.770Z,5.70
2023-02-03T23:57:04.833Z,5.70
2023-02-03T23:59:31.602Z,5.93
